createdAt,value
2019-01-22T00:00:26.288Z,24.98
2019-01-22T00:02:56.258Z,23.47
2019-01-22T00:05:25.367Z,24.05
2019-01-22T00:07:54.845Z,24.98
2019-01-22T00:10:23.662Z,25.30
2019-01-22T00:12:52.803Z,24.55
2019-01-22T00:15:21.771Z,23.07
2019-01-22T00:17:50.901Z,24.02
2019-01-22T00:20:19.700Z,24.37
2019-01-22T00:22:48.569Z,25.08
2019-01-22T00:25:17.464Z,24.00
2019-01-22T00:27:46.316Z,24.10
2019-01-22T00:30:16.762Z,22.58
2019-01-22T00:32:45.897Z,22.75
2019-01-22T00:35:14.848Z,22.82
2019-01-22T00:37:43.809Z,22.37
2019-01-22T00:40:14.149Z,22.70
2019-01-22T00:42:43.368Z,21.97
2019-01-22T00:45:12.828Z,22.35
2019-01-22T00:47:42.098Z,21.20
2019-01-22T00:50:13.066Z,21.48
2019-01-22T00:52:42.354Z,20.32
2019-01-22T00:55:12.416Z,21.97
2019-01-22T00:57:41.352Z,21.55
2019-01-22T01:00:26.258Z,22.85
2019-01-22T01:02:55.216Z,22.67
2019-01-22T01:05:24.702Z,23.90
2019-01-22T01:07:54.007Z,23.32
2019-01-22T01:10:23.305Z,23.67
2019-01-22T01:12:52.181Z,24.50
2019-01-22T01:15:21.269Z,23.10
2019-01-22T01:17:50.105Z,22.60
2019-01-22T01:20:20.610Z,24.10
2019-01-22T01:22:49.559Z,22.98
2019-01-22T01:25:20.265Z,23.65
2019-01-22T01:27:49.263Z,23.77
2019-01-22T01:30:20.703Z,22.60
2019-01-22T01:32:50.097Z,22.22
2019-01-22T01:35:18.904Z,24.43
2019-01-22T01:37:47.715Z,24.77
2019-01-22T01:40:18.066Z,23.85
2019-01-22T01:42:47.280Z,23.80
2019-01-22T01:45:16.809Z,24.18
2019-01-22T01:47:46.045Z,25.30
2019-01-22T01:50:16.861Z,23.67
2019-01-22T01:52:46.510Z,24.60
2019-01-22T01:55:17.187Z,25.23
2019-01-22T01:57:46.269Z,23.27
2019-01-22T02:00:24.452Z,23.32
2019-01-22T02:02:53.342Z,22.62
2019-01-22T02:05:22.216Z,22.55
2019-01-22T02:07:51.384Z,22.35
2019-01-22T02:10:22.496Z,21.93
2019-01-22T02:12:57.182Z,21.80
2019-01-22T02:15:48.838Z,21.68
2019-01-22T02:18:52.737Z,22.02
2019-01-22T02:21:40.636Z,22.20
2019-01-22T02:24:20.576Z,22.22
2019-01-22T02:27:10.228Z,23.32
2019-01-22T02:30:20.602Z,22.40
2019-01-22T02:33:45.196Z,22.48
2019-01-22T02:36:31.617Z,24.00
2019-01-22T02:39:38.883Z,22.82
2019-01-22T02:42:32.765Z,21.23
2019-01-22T02:45:57.945Z,22.85
2019-01-22T02:48:40.109Z,24.20
2019-01-22T02:51:45.126Z,23.07
2019-01-22T02:54:28.318Z,23.40
2019-01-22T02:57:35.581Z,22.62
2019-01-22T03:00:40.105Z,22.52
2019-01-22T03:03:37.424Z,23.60
2019-01-22T03:06:43.361Z,24.87
2019-01-22T03:09:21.069Z,22.65
2019-01-22T03:12:30.250Z,22.82
2019-01-22T03:15:48.132Z,22.30
2019-01-22T03:18:56.044Z,23.65
2019-01-22T03:21:35.293Z,22.10
2019-01-22T03:24:43.449Z,22.75
2019-01-22T03:27:47.301Z,24.37
2019-01-22T03:30:50.907Z,25.10
2019-01-22T03:34:05.194Z,26.68
2019-01-22T03:37:02.204Z,26.50
2019-01-22T03:39:51.685Z,26.35
2019-01-22T03:43:04.781Z,27.05
2019-01-22T03:46:07.845Z,25.23
2019-01-22T03:49:32.973Z,27.15
2019-01-22T03:52:52.100Z,26.35
2019-01-22T03:55:39.389Z,26.68
2019-01-22T03:58:12.676Z,25.37
2019-01-22T04:01:02.914Z,24.52
2019-01-22T04:03:31.933Z,25.80
2019-01-22T04:06:04.294Z,24.35
2019-01-22T04:08:33.554Z,24.00
2019-01-22T04:11:24.820Z,24.65
2019-01-22T04:13:53.801Z,25.48
2019-01-22T04:16:22.819Z,26.62
2019-01-22T04:18:51.921Z,24.47
2019-01-22T04:21:23.805Z,25.57
2019-01-22T04:24:36.401Z,27.07
2019-01-22T04:27:32.331Z,28.32
2019-01-22T04:30:25.318Z,26.10
2019-01-22T04:33:33.440Z,23.92
2019-01-22T04:36:26.750Z,24.90
2019-01-22T04:39:17.033Z,26.23
2019-01-22T04:42:14.530Z,24.95
2019-01-22T04:45:14.726Z,25.48
2019-01-22T04:48:14.104Z,26.97
2019-01-22T04:51:11.613Z,26.97
2019-01-22T04:54:09.403Z,25.63
2019-01-22T04:56:59.691Z,24.87
2019-01-22T05:00:09.252Z,25.77
2019-01-22T05:03:07.692Z,24.80
2019-01-22T05:06:12.766Z,25.45
2019-01-22T05:09:05.753Z,23.90
2019-01-22T05:12:03.377Z,25.10
2019-01-22T05:15:25.765Z,24.77
2019-01-22T05:18:14.386Z,25.05
2019-01-22T05:20:57.054Z,24.02
2019-01-22T05:24:17.949Z,25.65
2019-01-22T05:27:19.909Z,27.35
2019-01-22T05:30:24.366Z,26.50
2019-01-22T05:33:26.852Z,25.35
2019-01-22T05:36:18.554Z,24.40
2019-01-22T05:39:28.573Z,24.35
2019-01-22T05:42:35.205Z,23.50
2019-01-22T05:45:35.833Z,24.05
2019-01-22T05:48:25.606Z,24.50
2019-01-22T05:51:41.237Z,23.67
2019-01-22T05:54:39.757Z,23.77
2019-01-22T05:57:23.176Z,23.40
2019-01-22T06:00:02.422Z,24.10
2019-01-22T06:02:42.841Z,26.30
2019-01-22T06:06:06.990Z,26.05
2019-01-22T06:09:07.701Z,24.77
2019-01-22T06:12:10.918Z,24.70
2019-01-22T06:15:30.197Z,23.95
2019-01-22T06:18:37.468Z,24.23
2019-01-22T06:21:24.482Z,24.85
2019-01-22T06:24:22.033Z,26.05
2019-01-22T06:27:04.375Z,24.52
2019-01-22T06:30:23.394Z,25.55
2019-01-22T06:33:35.553Z,24.15
2019-01-22T06:36:45.613Z,24.00
2019-01-22T06:39:29.953Z,23.77
2019-01-22T06:42:26.348Z,23.35
2019-01-22T06:45:32.561Z,24.00
2019-01-22T06:48:38.920Z,23.35
2019-01-22T06:51:51.057Z,24.40
2019-01-22T06:54:39.643Z,25.50
2019-01-22T06:57:49.585Z,24.98
2019-01-22T07:01:18.101Z,27.07
2019-01-22T07:04:06.553Z,27.05
2019-01-22T07:07:37.953Z,25.60
2019-01-22T07:10:54.026Z,24.10
2019-01-22T07:13:45.249Z,25.03
2019-01-22T07:17:07.197Z,24.07
2019-01-22T07:20:12.033Z,27.20
2019-01-22T07:23:20.509Z,27.02
2019-01-22T07:26:29.789Z,25.40
2019-01-22T07:29:43.418Z,27.50
2019-01-22T07:32:39.414Z,26.20
2019-01-22T07:35:37.804Z,25.02
2019-01-22T07:38:33.190Z,25.95
2019-01-22T07:41:23.513Z,25.55
2019-01-22T07:44:16.876Z,24.60
2019-01-22T07:47:09.693Z,25.30
2019-01-22T07:50:28.324Z,24.47
2019-01-22T07:53:50.418Z,25.88
2019-01-22T07:56:51.117Z,25.35
2019-01-22T07:59:38.193Z,28.95
2019-01-22T08:02:33.277Z,26.77
2019-01-22T08:05:24.822Z,26.37
2019-01-22T08:08:18.272Z,25.83
2019-01-22T08:11:08.750Z,28.23
2019-01-22T08:13:46.629Z,27.40
2019-01-22T08:16:59.545Z,26.80
2019-01-22T08:20:03.338Z,25.45
2019-01-22T08:23:11.990Z,25.88
2019-01-22T08:26:19.173Z,27.20
2019-01-22T08:29:09.778Z,25.10
2019-01-22T08:32:03.936Z,22.87
2019-01-22T08:35:32.413Z,24.82
2019-01-22T08:38:30.841Z,23.60
2019-01-22T08:41:25.043Z,25.90
2019-01-22T08:44:29.829Z,23.77
2019-01-22T08:47:32.543Z,23.15
2019-01-22T08:50:26.115Z,22.87
2019-01-22T08:53:41.501Z,24.67
2019-01-22T08:56:49.070Z,24.65
2019-01-22T08:59:41.601Z,22.82
2019-01-22T09:02:47.625Z,21.70
2019-01-22T09:05:45.241Z,22.50
2019-01-22T09:08:41.981Z,21.70
2019-01-22T09:11:43.647Z,19.65
2019-01-22T09:14:29.705Z,19.25
2019-01-22T09:17:16.681Z,21.17
2019-01-22T09:20:11.102Z,21.93
2019-01-22T09:23:34.409Z,22.48
2019-01-22T09:26:19.869Z,22.63
2019-01-22T09:29:14.734Z,23.05
2019-01-22T09:32:08.247Z,22.70
2019-01-22T09:35:20.897Z,24.60
2019-01-22T09:37:53.641Z,25.00
2019-01-22T09:40:24.332Z,25.50
2019-01-22T09:42:53.316Z,24.60
2019-01-22T09:45:22.396Z,25.10
2019-01-22T09:47:51.302Z,25.85
2019-01-22T09:50:20.141Z,26.57
2019-01-22T09:52:49.897Z,25.65
2019-01-22T09:55:23.314Z,24.67
2019-01-22T09:57:52.361Z,26.68
2019-01-22T10:00:22.109Z,26.80
2019-01-22T10:02:50.993Z,26.42
2019-01-22T10:05:19.900Z,25.68
2019-01-22T10:07:49.097Z,25.43
2019-01-22T10:10:19.301Z,26.07
2019-01-22T10:12:48.522Z,27.10
2019-01-22T10:15:19.559Z,26.07
2019-01-22T10:17:48.721Z,26.50
2019-01-22T10:20:20.213Z,26.90
2019-01-22T10:22:49.829Z,28.20
2019-01-22T10:25:18.841Z,28.12
2019-01-22T10:27:47.940Z,27.90
2019-01-22T10:30:21.907Z,28.00
2019-01-22T10:32:51.243Z,27.17
2019-01-22T10:35:20.244Z,26.95
2019-01-22T10:37:49.141Z,27.00
2019-01-22T10:40:19.934Z,26.87
2019-01-22T10:42:48.852Z,27.70
2019-01-22T10:45:18.437Z,27.15
2019-01-22T10:47:47.454Z,27.73
2019-01-22T10:50:18.066Z,27.42
2019-01-22T10:52:46.991Z,27.10
2019-01-22T10:55:16.303Z,27.17
2019-01-22T10:57:45.297Z,28.95
2019-01-22T11:00:23.177Z,27.32
2019-01-22T11:02:52.189Z,26.50
2019-01-22T11:05:27.369Z,26.60
2019-01-22T11:07:56.294Z,25.40
2019-01-22T11:10:25.205Z,25.27
2019-01-22T11:12:54.265Z,26.62
2019-01-22T11:15:27.827Z,25.60
2019-01-22T11:17:53.826Z,24.10
2019-01-22T11:20:24.618Z,24.12
2019-01-22T11:22:53.633Z,23.75
2019-01-22T11:25:24.293Z,26.05
2019-01-22T11:27:53.272Z,22.95
2019-01-22T11:30:23.103Z,24.98
2019-01-22T11:32:52.104Z,24.57
2019-01-22T11:35:21.921Z,25.97
2019-01-22T11:37:51.229Z,25.35
2019-01-22T11:40:23.490Z,26.95
2019-01-22T11:43:11.616Z,25.63
2019-01-22T11:45:40.601Z,26.90
2019-01-22T11:48:11.033Z,27.50
2019-01-22T11:50:40.169Z,27.10
2019-01-22T11:53:09.221Z,27.25
2019-01-22T11:55:38.140Z,26.50
2019-01-22T11:58:07.184Z,26.50
2019-01-22T12:00:56.830Z,27.07
2019-01-22T12:03:25.838Z,25.15
2019-01-22T12:05:54.745Z,25.65
2019-01-22T12:08:23.717Z,25.65
2019-01-22T12:10:52.758Z,24.35
2019-01-22T12:13:21.600Z,24.82
2019-01-22T12:15:50.513Z,22.67
2019-01-22T12:18:19.417Z,22.65
2019-01-22T12:20:49.259Z,23.00
2019-01-22T12:23:18.217Z,23.12
2019-01-22T12:25:47.157Z,25.27
2019-01-22T12:28:16.679Z,24.50
2019-01-22T12:30:45.654Z,26.17
2019-01-22T12:33:14.640Z,25.32
2019-01-22T12:35:43.605Z,24.95
2019-01-22T12:38:12.589Z,24.10
2019-01-22T12:40:41.457Z,25.00
2019-01-22T12:43:10.444Z,25.35
2019-01-22T12:45:40.045Z,22.93
2019-01-22T12:48:10.157Z,24.37
2019-01-22T12:50:39.529Z,24.15
2019-01-22T12:53:10.824Z,24.40
2019-01-22T12:55:39.834Z,25.97
2019-01-22T12:58:08.822Z,24.70
2019-01-22T13:00:38.341Z,25.35
2019-01-22T13:03:07.515Z,25.30
2019-01-22T13:05:48.408Z,26.07
2019-01-22T13:08:17.393Z,25.57
2019-01-22T13:10:46.293Z,26.95
2019-01-22T13:13:15.549Z,25.60
2019-01-22T13:15:44.841Z,26.23
2019-01-22T13:18:13.829Z,26.27
2019-01-22T13:20:42.861Z,26.23
2019-01-22T13:23:11.973Z,25.57
2019-01-22T13:25:40.965Z,26.33
2019-01-22T13:28:09.873Z,26.10
2019-01-22T13:30:38.956Z,27.05
2019-01-22T13:33:07.864Z,26.00
2019-01-22T13:35:37.118Z,29.75
2019-01-22T13:38:06.049Z,28.65
2019-01-22T13:40:35.218Z,26.70
2019-01-22T13:43:04.747Z,25.60
2019-01-22T13:45:33.822Z,27.82
2019-01-22T13:48:03.125Z,25.68
2019-01-22T13:50:32.125Z,26.35
2019-01-22T13:53:01.144Z,27.37
2019-01-22T13:55:34.903Z,28.40
2019-01-22T13:58:04.205Z,27.35
2019-01-22T14:00:33.176Z,27.58
2019-01-22T14:03:02.281Z,30.60
2019-01-22T14:05:31.358Z,27.42
2019-01-22T14:08:00.344Z,28.45
2019-01-22T14:10:29.313Z,28.00
2019-01-22T14:12:58.255Z,27.65
2019-01-22T14:15:29.710Z,29.10
2019-01-22T14:17:58.955Z,29.20
2019-01-22T14:20:27.861Z,27.82
2019-01-22T14:22:57.094Z,26.42
2019-01-22T14:25:26.056Z,28.00
2019-01-22T14:27:55.001Z,26.40
2019-01-22T14:30:29.017Z,27.77
2019-01-22T14:32:58.241Z,25.88
2019-01-22T14:35:27.230Z,27.30
2019-01-22T14:37:56.170Z,27.10
2019-01-22T14:40:25.162Z,26.60
2019-01-22T14:42:54.291Z,27.13
2019-01-22T14:45:23.390Z,26.95
2019-01-22T14:47:52.702Z,28.45
2019-01-22T14:50:23.489Z,26.12
2019-01-22T14:52:52.396Z,27.05
2019-01-22T14:55:21.626Z,25.90
2019-01-22T14:57:50.657Z,26.23
2019-01-22T15:00:24.938Z,26.90
2019-01-22T15:02:54.806Z,24.80
2019-01-22T15:05:23.986Z,23.35
2019-01-22T15:07:52.973Z,24.40
2019-01-22T15:10:21.985Z,23.40
2019-01-22T15:12:53.337Z,23.20
2019-01-22T15:15:22.686Z,21.82
2019-01-22T15:17:51.527Z,22.67
2019-01-22T15:20:22.277Z,23.22
2019-01-22T15:22:51.278Z,22.60
2019-01-22T15:25:20.266Z,23.30
2019-01-22T15:27:49.249Z,22.30
2019-01-22T15:30:20.633Z,24.00
2019-01-22T15:32:49.637Z,23.32
2019-01-22T15:35:18.562Z,23.18
2019-01-22T15:37:47.482Z,25.20
2019-01-22T15:40:19.009Z,25.35
2019-01-22T15:42:48.058Z,25.82
2019-01-22T15:45:17.171Z,24.80
2019-01-22T15:47:46.178Z,24.35
2019-01-22T15:50:16.161Z,24.45
2019-01-22T15:52:45.035Z,23.57
2019-01-22T15:55:20.226Z,23.80
2019-01-22T15:57:49.300Z,24.18
2019-01-22T16:00:19.865Z,24.10
2019-01-22T16:02:48.840Z,24.63
2019-01-22T16:05:18.024Z,24.60
2019-01-22T16:07:47.255Z,24.63
2019-01-22T16:10:16.281Z,24.32
2019-01-22T16:12:45.518Z,24.18
2019-01-22T16:15:16.881Z,25.55
2019-01-22T16:17:46.033Z,25.48
2019-01-22T16:20:17.529Z,24.72
2019-01-22T16:22:46.882Z,25.40
2019-01-22T16:25:16.066Z,25.68
2019-01-22T16:27:44.990Z,25.60
2019-01-22T16:30:16.270Z,24.43
2019-01-22T16:32:45.525Z,26.13
2019-01-22T16:35:16.217Z,25.35
2019-01-22T16:37:45.126Z,25.80
2019-01-22T16:40:14.703Z,25.60
2019-01-22T16:42:43.688Z,25.13
2019-01-22T16:45:19.025Z,24.82
2019-01-22T16:47:48.190Z,25.60
2019-01-22T16:50:17.465Z,26.45
2019-01-22T16:52:46.506Z,24.67
2019-01-22T16:55:18.558Z,24.40
2019-01-22T16:57:47.409Z,24.57
2019-01-22T17:00:22.833Z,25.10
2019-01-22T17:02:51.797Z,23.90
2019-01-22T17:05:21.049Z,23.70
2019-01-22T17:07:50.013Z,25.00
2019-01-22T17:10:19.358Z,24.70
2019-01-22T17:12:48.405Z,23.50
2019-01-22T17:15:17.401Z,25.80
2019-01-22T17:17:46.632Z,25.48
2019-01-22T17:20:36.324Z,25.30
2019-01-22T17:23:05.539Z,26.40
2019-01-22T17:25:34.549Z,26.05
2019-01-22T17:28:03.890Z,25.70
2019-01-22T17:30:32.825Z,25.50
2019-01-22T17:33:26.046Z,24.37
2019-01-22T17:35:55.136Z,24.32
2019-01-22T17:38:24.049Z,25.57
2019-01-22T17:40:53.329Z,26.27
2019-01-22T17:43:22.370Z,27.62
2019-01-22T17:45:51.396Z,27.40
2019-01-22T17:48:20.365Z,28.70
2019-01-22T17:50:49.522Z,28.47
2019-01-22T17:53:18.814Z,29.18
2019-01-22T17:55:47.833Z,28.20
2019-01-22T17:58:16.753Z,27.75
2019-01-22T18:00:46.079Z,27.95
2019-01-22T18:03:15.066Z,26.97
2019-01-22T18:05:44.065Z,27.42
2019-01-22T18:08:13.230Z,27.15
2019-01-22T18:10:42.293Z,25.48
2019-01-22T18:13:11.234Z,28.90
2019-01-22T18:15:40.149Z,27.17
2019-01-22T18:18:09.103Z,27.32
2019-01-22T18:20:38.009Z,26.25
2019-01-22T18:23:07.149Z,26.80
2019-01-22T18:25:36.494Z,26.33
2019-01-22T18:28:05.730Z,27.67
2019-01-22T18:30:34.592Z,26.40
2019-01-22T18:33:03.478Z,26.77
2019-01-22T18:35:38.099Z,26.83
2019-01-22T18:38:06.248Z,28.12
2019-01-22T18:40:35.225Z,27.45
2019-01-22T18:43:04.314Z,26.10
2019-01-22T18:45:33.305Z,26.70
2019-01-22T18:48:02.221Z,25.12
2019-01-22T18:50:31.193Z,25.00
2019-01-22T18:53:00.137Z,26.33
2019-01-22T18:55:29.069Z,24.90
2019-01-22T18:57:58.086Z,24.25
2019-01-22T19:00:26.985Z,25.25
2019-01-22T19:02:56.324Z,26.42
2019-01-22T19:05:25.623Z,24.00
2019-01-22T19:07:54.553Z,26.05
2019-01-22T19:10:25.521Z,24.30
2019-01-22T19:12:54.517Z,23.22
2019-01-22T19:15:23.761Z,24.05
2019-01-22T19:17:53.242Z,24.80
2019-01-22T19:20:22.238Z,24.85
2019-01-22T19:22:51.176Z,25.50
2019-01-22T19:25:22.276Z,26.25
2019-01-22T19:27:51.574Z,26.70
2019-01-22T19:30:22.788Z,25.37
2019-01-22T19:32:51.828Z,24.75
2019-01-22T19:35:20.842Z,26.33
2019-01-22T19:37:49.982Z,26.50
2019-01-22T19:40:18.982Z,24.32
2019-01-22T19:42:48.343Z,26.23
2019-01-22T19:45:19.749Z,26.50
2019-01-22T19:47:48.735Z,25.60
2019-01-22T19:50:17.922Z,24.47
2019-01-22T19:52:46.862Z,25.37
2019-01-22T19:55:15.833Z,25.82
2019-01-22T19:57:44.749Z,23.80
2019-01-22T20:00:19.997Z,24.43
2019-01-22T20:02:48.985Z,24.30
2019-01-22T20:05:18.408Z,23.95
2019-01-22T20:07:47.385Z,23.45
2019-01-22T20:10:16.794Z,24.92
2019-01-22T20:12:45.785Z,25.82
2019-01-22T20:15:15.501Z,24.37
2019-01-22T20:17:44.686Z,26.02
2019-01-22T20:20:16.029Z,24.52
2019-01-22T20:22:45.353Z,25.68
2019-01-22T20:25:14.849Z,25.97
2019-01-22T20:27:47.985Z,26.45
2019-01-22T20:30:18.083Z,26.27
2019-01-22T20:32:47.225Z,26.02
2019-01-22T20:35:16.226Z,25.68
2019-01-22T20:37:45.213Z,26.20
2019-01-22T20:40:14.613Z,26.20
2019-01-22T20:42:43.525Z,25.57
2019-01-22T20:45:14.989Z,25.37
2019-01-22T20:47:43.915Z,25.23
2019-01-22T20:50:19.132Z,25.20
2019-01-22T20:52:44.868Z,26.60
2019-01-22T20:55:15.565Z,26.02
2019-01-22T20:57:44.569Z,25.32
2019-01-22T21:00:16.533Z,26.35
2019-01-22T21:02:45.548Z,25.68
2019-01-22T21:05:17.340Z,24.98
2019-01-22T21:07:46.325Z,27.05
2019-01-22T21:10:27.226Z,27.07
2019-01-22T21:12:56.215Z,27.32
2019-01-22T21:15:25.230Z,27.13
2019-01-22T21:17:54.161Z,26.65
2019-01-22T21:20:23.098Z,27.37
2019-01-22T21:22:52.117Z,26.20
2019-01-22T21:25:21.321Z,27.00
2019-01-22T21:27:50.333Z,28.80
2019-01-22T21:30:25.436Z,28.17
2019-01-22T21:32:54.681Z,28.55
2019-01-22T21:35:23.593Z,28.23
2019-01-22T21:37:52.421Z,28.17
2019-01-22T21:40:21.424Z,27.70
2019-01-22T21:42:50.943Z,27.13
2019-01-22T21:45:20.267Z,28.17
2019-01-22T21:47:49.173Z,26.00
2019-01-22T21:50:18.156Z,25.48
2019-01-22T21:52:47.152Z,26.77
2019-01-22T21:55:18.389Z,26.07
2019-01-22T21:57:47.289Z,27.25
2019-01-22T22:00:18.628Z,27.17
2019-01-22T22:02:47.604Z,26.70
2019-01-22T22:05:17.765Z,27.17
2019-01-22T22:07:47.081Z,28.10
2019-01-22T22:10:18.186Z,28.75
2019-01-22T22:12:47.180Z,28.15
2019-01-22T22:15:18.424Z,30.20
2019-01-22T22:17:47.460Z,29.95
2019-01-22T22:20:16.913Z,29.85
2019-01-22T22:22:45.969Z,28.87
2019-01-22T22:25:16.569Z,29.80
2019-01-22T22:27:45.577Z,28.07
2019-01-22T22:30:25.902Z,28.35
2019-01-22T22:32:54.805Z,28.70
2019-01-22T22:35:23.809Z,28.07
2019-01-22T22:37:52.717Z,29.63
2019-01-22T22:40:22.019Z,29.50
2019-01-22T22:42:51.285Z,29.32
2019-01-22T22:45:20.433Z,28.38
2019-01-22T22:47:49.469Z,28.52
2019-01-22T22:50:20.606Z,29.45
2019-01-22T22:52:49.520Z,29.07
2019-01-22T22:55:18.540Z,29.27
2019-01-22T22:57:47.471Z,30.10
2019-01-22T23:00:35.161Z,28.07
2019-01-22T23:03:05.973Z,28.55
2019-01-22T23:05:35.750Z,28.27
2019-01-22T23:08:05.086Z,29.63
2019-01-22T23:10:34.143Z,28.45
2019-01-22T23:13:03.367Z,29.40
2019-01-22T23:15:32.362Z,28.50
2019-01-22T23:18:01.337Z,27.05
2019-01-22T23:20:30.249Z,27.60
2019-01-22T23:22:59.080Z,28.38
2019-01-22T23:25:28.049Z,26.80
2019-01-22T23:27:56.882Z,26.87
2019-01-22T23:30:25.957Z,26.68
2019-01-22T23:32:54.866Z,28.83
2019-01-22T23:35:23.857Z,27.35
2019-01-22T23:37:52.832Z,27.58
2019-01-22T23:40:21.813Z,27.35
2019-01-22T23:42:50.871Z,29.30
2019-01-22T23:45:20.189Z,30.50
2019-01-22T23:47:49.181Z,30.00
2019-01-22T23:50:18.502Z,28.10
2019-01-22T23:52:47.770Z,29.57
2019-01-22T23:55:16.766Z,28.05
2019-01-22T23:57:45.607Z,28.83
